sensor_id;sensor_type;location;lat;lon;timestamp;pressure;altitude;pressure_sealevel;temperature;humidity
81482;BME280;70894;52.346;5.314;2023-07-08T00:01:39;101940.53;;;16.95;100.00
81482;BME280;70894;52.346;5.314;2023-07-08T00:04:37;101936.88;;;16.87;100.00
81482;BME280;70894;52.346;5.314;2023-07-08T00:07:27;101934.59;;;16.96;100.00
81482;BME280;70894;52.346;5.314;2023-07-08T00:09:57;101921.41;;;16.97;100.00
81482;BME280;70894;52.346;5.314;2023-07-08T00:12:22;101919.41;;;16.94;100.00
81482;BME280;70894;52.346;5.314;2023-07-08T00:14:49;101919.03;;;16.95;100.00
81482;BME280;70894;52.346;5.314;2023-07-08T00:17:14;101916.25;;;16.95;100.00
81482;BME280;70894;52.346;5.314;2023-07-08T00:19:44;101917.53;;;17.05;100.00
81482;BME280;70894;52.346;5.314;2023-07-08T00:22:13;101915.22;;;17.14;100.00
81482;BME280;70894;52.346;5.314;2023-07-08T00:24:46;101912.94;;;17.23;100.00
81482;BME280;70894;52.346;5.314;2023-07-08T00:27:12;101906.09;;;17.20;100.00
81482;BME280;70894;52.346;5.314;2023-07-08T00:29:51;101908.47;;;17.18;100.00
81482;BME280;70894;52.346;5.314;2023-07-08T00:32:16;101912.50;;;17.21;100.00
81482;BME280;70894;52.346;5.314;2023-07-08T00:34:41;101908.97;;;17.27;100.00
81482;BME280;70894;52.346;5.314;2023-07-08T00:37:11;101915.84;;;17.33;100.00
81482;BME280;70894;52.346;5.314;2023-07-08T00:39:38;101915.38;;;17.28;100.00
81482;BME280;70894;52.346;5.314;2023-07-08T00:42:16;101907.75;;;17.25;100.00
81482;BME280;70894;52.346;5.314;2023-07-08T00:44:44;101907.34;;;17.23;100.00
81482;BME280;70894;52.346;5.314;2023-07-08T00:47:27;101899.03;;;17.30;100.00
81482;BME280;70894;52.346;5.314;2023-07-08T00:49:57;101895.81;;;17.28;100.00
81482;BME280;70894;52.346;5.314;2023-07-08T00:55:23;101895.69;;;17.14;100.00
81482;BME280;70894;52.346;5.314;2023-07-08T00:58:03;101885.63;;;17.09;100.00
81482;BME280;70894;52.346;5.314;2023-07-08T01:03:54;101890.81;;;17.07;100.00
81482;BME280;70894;52.346;5.314;2023-07-08T01:06:31;101890.38;;;17.05;100.00
81482;BME280;70894;52.346;5.314;2023-07-08T01:09:22;101889.59;;;17.05;100.00
81482;BME280;70894;52.346;5.314;2023-07-08T01:11:49;101894.75;;;17.03;100.00
81482;BME280;70894;52.346;5.314;2023-07-08T01:14:17;101887.56;;;16.98;100.00
81482;BME280;70894;52.346;5.314;2023-07-08T01:16:45;101888.72;;;16.97;100.00
81482;BME280;70894;52.346;5.314;2023-07-08T01:19:16;101886.75;;;17.01;100.00
81482;BME280;70894;52.346;5.314;2023-07-08T01:21:57;101885.94;;;16.97;100.00
81482;BME280;70894;52.346;5.314;2023-07-08T01:24:27;101877.59;;;17.04;100.00
81482;BME280;70894;52.346;5.314;2023-07-08T01:27:02;101869.63;;;17.03;100.00
81482;BME280;70894;52.346;5.314;2023-07-08T01:29:40;101867.59;;;17.00;100.00
81482;BME280;70894;52.346;5.314;2023-07-08T01:32:20;101866.81;;;16.99;100.00
81482;BME280;70894;52.346;5.314;2023-07-08T01:35:05;101862.41;;;16.98;100.00
81482;BME280;70894;52.346;5.314;2023-07-08T01:37:36;101870.38;;;16.96;100.00
81482;BME280;70894;52.346;5.314;2023-07-08T01:42:51;101862.00;;;16.96;100.00
81482;BME280;70894;52.346;5.314;2023-07-08T01:45:34;101863.22;;;16.99;100.00
81482;BME280;70894;52.346;5.314;2023-07-08T01:51:06;101853.97;;;16.91;100.00
81482;BME280;70894;52.346;5.314;2023-07-08T01:53:51;101845.19;;;16.89;100.00
81482;BME280;70894;52.346;5.314;2023-07-08T01:56:27;101848.75;;;16.90;100.00
81482;BME280;70894;52.346;5.314;2023-07-08T01:59:07;101844.44;;;16.96;100.00
81482;BME280;70894;52.346;5.314;2023-07-08T02:04:41;101841.22;;;16.94;100.00
81482;BME280;70894;52.346;5.314;2023-07-08T02:07:06;101839.13;;;16.84;100.00
81482;BME280;70894;52.346;5.314;2023-07-08T02:09:32;101828.34;;;16.82;100.00
81482;BME280;70894;52.346;5.314;2023-07-08T02:11:57;101839.09;;;16.80;100.00
81482;BME280;70894;52.346;5.314;2023-07-08T02:14:22;101825.06;;;16.73;100.00
81482;BME280;70894;52.346;5.314;2023-07-08T02:16:48;101829.97;;;16.83;100.00
81482;BME280;70894;52.346;5.314;2023-07-08T02:19:13;101828.34;;;16.82;100.00
81482;BME280;70894;52.346;5.314;2023-07-08T02:21:42;101826.28;;;16.76;100.00
81482;BME280;70894;52.346;5.314;2023-07-08T02:24:08;101816.28;;;16.71;100.00
81482;BME280;70894;52.346;5.314;2023-07-08T02:26:33;101818.25;;;16.71;100.00
81482;BME280;70894;52.346;5.314;2023-07-08T02:28:59;101814.63;;;16.67;100.00
81482;BME280;70894;52.346;5.314;2023-07-08T02:31:26;101813.78;;;16.63;100.00
81482;BME280;70894;52.346;5.314;2023-07-08T02:33:52;101812.94;;;16.59;100.00
81482;BME280;70894;52.346;5.314;2023-07-08T02:36:18;101824.09;;;16.59;100.00
81482;BME280;70894;52.346;5.314;2023-07-08T02:38:44;101813.69;;;16.52;100.00
81482;BME280;70894;52.346;5.314;2023-07-08T02:41:12;101814.13;;;16.58;100.00
81482;BME280;70894;52.346;5.314;2023-07-08T02:43:38;101810.06;;;16.52;100.00
81482;BME280;70894;52.346;5.314;2023-07-08T02:46:04;101797.66;;;16.46;100.00
81482;BME280;70894;52.346;5.314;2023-07-08T02:48:30;101804.38;;;16.42;100.00
81482;BME280;70894;52.346;5.314;2023-07-08T02:51:02;101802.44;;;16.46;100.00
81482;BME280;70894;52.346;5.314;2023-07-08T02:53:29;101800.75;;;16.38;100.00
81482;BME280;70894;52.346;5.314;2023-07-08T02:55:56;101798.31;;;16.36;100.00
81482;BME280;70894;52.346;5.314;2023-07-08T02:58:21;101791.88;;;16.32;100.00
81482;BME280;70894;52.346;5.314;2023-07-08T03:00:54;101806.56;;;16.26;100.00
81482;BME280;70894;52.346;5.314;2023-07-08T03:03:21;101804.53;;;16.23;100.00
81482;BME280;70894;52.346;5.314;2023-07-08T03:08:21;101788.22;;;16.25;100.00
81482;BME280;70894;52.346;5.314;2023-07-08T03:10:58;101791.41;;;16.27;100.00
81482;BME280;70894;52.346;5.314;2023-07-08T03:13:24;101788.75;;;16.34;100.00
81482;BME280;70894;52.346;5.314;2023-07-08T03:15:50;101783.41;;;16.25;100.00
81482;BME280;70894;52.346;5.314;2023-07-08T03:18:16;101793.38;;;16.23;100.00
81482;BME280;70894;52.346;5.314;2023-07-08T03:20:42;101794.06;;;16.16;100.00
81482;BME280;70894;52.346;5.314;2023-07-08T03:23:12;101792.47;;;16.15;100.00
81482;BME280;70894;52.346;5.314;2023-07-08T03:25:41;101784.50;;;16.14;100.00
81482;BME280;70894;52.346;5.314;2023-07-08T03:28:08;101797.97;;;16.08;100.00
81482;BME280;70894;52.346;5.314;2023-07-08T03:30:44;101792.41;;;16.08;100.00
81482;BME280;70894;52.346;5.314;2023-07-08T03:33:26;101790.41;;;16.09;100.00
81482;BME280;70894;52.346;5.314;2023-07-08T03:35:52;101794.78;;;16.10;100.00
81482;BME280;70894;52.346;5.314;2023-07-08T03:38:19;101794.50;;;16.18;100.00
81482;BME280;70894;52.346;5.314;2023-07-08T03:40:51;101793.28;;;16.16;100.00
81482;BME280;70894;52.346;5.314;2023-07-08T03:43:18;101803.56;;;16.08;100.00
81482;BME280;70894;52.346;5.314;2023-07-08T03:45:44;101796.38;;;16.07;100.00
81482;BME280;70894;52.346;5.314;2023-07-08T03:48:11;101803.22;;;16.13;100.00
81482;BME280;70894;52.346;5.314;2023-07-08T03:50:43;101806.03;;;16.17;100.00
81482;BME280;70894;52.346;5.314;2023-07-08T03:53:09;101801.19;;;16.10;100.00
81482;BME280;70894;52.346;5.314;2023-07-08T03:55:35;101800.44;;;16.13;100.00
81482;BME280;70894;52.346;5.314;2023-07-08T03:58:06;101802.06;;;16.18;100.00
81482;BME280;70894;52.346;5.314;2023-07-08T04:00:38;101809.69;;;16.21;100.00
81482;BME280;70894;52.346;5.314;2023-07-08T04:03:04;101811.69;;;16.24;100.00
81482;BME280;70894;52.346;5.314;2023-07-08T04:05:30;101807.72;;;16.25;100.00
81482;BME280;70894;52.346;5.314;2023-07-08T04:07:55;101806.16;;;16.27;100.00
81482;BME280;70894;52.346;5.314;2023-07-08T04:10:22;101811.72;;;16.27;100.00
81482;BME280;70894;52.346;5.314;2023-07-08T04:12:49;101803.03;;;16.32;100.00
81482;BME280;70894;52.346;5.314;2023-07-08T04:15:14;101807.50;;;16.37;100.00
81482;BME280;70894;52.346;5.314;2023-07-08T04:17:47;101809.13;;;16.41;100.00
81482;BME280;70894;52.346;5.314;2023-07-08T04:20:15;101797.19;;;16.41;100.00
81482;BME280;70894;52.346;5.314;2023-07-08T04:22:40;101808.84;;;16.49;100.00
81482;BME280;70894;52.346;5.314;2023-07-08T04:25:14;101800.97;;;16.58;100.00
81482;BME280;70894;52.346;5.314;2023-07-08T04:27:45;101805.81;;;16.65;100.00
81482;BME280;70894;52.346;5.314;2023-07-08T04:30:24;101804.28;;;16.67;100.00
81482;BME280;70894;52.346;5.314;2023-07-08T04:32:57;101812.31;;;16.72;100.00
81482;BME280;70894;52.346;5.314;2023-07-08T04:35:22;101809.16;;;16.77;100.00
81482;BME280;70894;52.346;5.314;2023-07-08T04:37:47;101797.66;;;16.86;100.00
81482;BME280;70894;52.346;5.314;2023-07-08T04:40:19;101805.31;;;16.92;100.00
81482;BME280;70894;52.346;5.314;2023-07-08T04:42:46;101811.38;;;17.01;100.00
81482;BME280;70894;52.346;5.314;2023-07-08T04:45:19;101812.66;;;17.11;100.00
81482;BME280;70894;52.346;5.314;2023-07-08T04:48:03;101805.97;;;17.22;100.00
81482;BME280;70894;52.346;5.314;2023-07-08T04:50:46;101802.16;;;17.41;100.00
81482;BME280;70894;52.346;5.314;2023-07-08T04:53:14;101803.41;;;17.50;100.00
81482;BME280;70894;52.346;5.314;2023-07-08T04:55:42;101804.66;;;17.56;100.00
81482;BME280;70894;52.346;5.314;2023-07-08T04:58:13;101810.34;;;17.70;100.00
81482;BME280;70894;52.346;5.314;2023-07-08T05:00:38;101816.78;;;17.77;100.00
81482;BME280;70894;52.346;5.314;2023-07-08T05:03:20;101811.66;;;17.90;100.00
81482;BME280;70894;52.346;5.314;2023-07-08T05:05:49;101815.66;;;17.92;100.00
81482;BME280;70894;52.346;5.314;2023-07-08T05:08:15;101808.53;;;18.02;100.00
81482;BME280;70894;52.346;5.314;2023-07-08T05:10:51;101808.94;;;18.07;100.00
81482;BME280;70894;52.346;5.314;2023-07-08T05:13:32;101806.97;;;18.11;100.00
81482;BME280;70894;52.346;5.314;2023-07-08T05:15:57;101803.81;;;18.20;100.00
81482;BME280;70894;52.346;5.314;2023-07-08T05:18:27;101797.88;;;18.25;100.00
81482;BME280;70894;52.346;5.314;2023-07-08T05:20:55;101802.69;;;18.31;100.00
81482;BME280;70894;52.346;5.314;2023-07-08T05:23:21;101802.34;;;18.40;100.00
81482;BME280;70894;52.346;5.314;2023-07-08T05:25:54;101805.97;;;18.51;100.00
81482;BME280;70894;52.346;5.314;2023-07-08T05:28:20;101806.78;;;18.55;100.00
81482;BME280;70894;52.346;5.314;2023-07-08T05:30:52;101804.00;;;18.62;100.00
81482;BME280;70894;52.346;5.314;2023-07-08T05:33:19;101809.63;;;18.69;100.00
81482;BME280;70894;52.346;5.314;2023-07-08T05:35:45;101808.00;;;18.82;100.00
81482;BME280;70894;52.346;5.314;2023-07-08T05:38:11;101807.25;;;18.88;100.00
81482;BME280;70894;52.346;5.314;2023-07-08T05:40:38;101804.03;;;18.97;100.00
81482;BME280;70894;52.346;5.314;2023-07-08T05:43:17;101806.44;;;19.02;100.00
81482;BME280;70894;52.346;5.314;2023-07-08T05:46:00;101796.44;;;19.07;100.00
81482;BME280;70894;52.346;5.314;2023-07-08T05:48:49;101804.88;;;19.28;100.00
81482;BME280;70894;52.346;5.314;2023-07-08T05:51:26;101805.28;;;19.41;100.00
81482;BME280;70894;52.346;5.314;2023-07-08T05:54:02;101802.88;;;19.43;100.00
81482;BME280;70894;52.346;5.314;2023-07-08T05:56:27;101786.44;;;19.48;100.00
81482;BME280;70894;52.346;5.314;2023-07-08T05:59:13;101788.81;;;19.57;100.00
81482;BME280;70894;52.346;5.314;2023-07-08T06:01:45;101788.41;;;19.62;100.00
81482;BME280;70894;52.346;5.314;2023-07-08T06:04:16;101785.59;;;19.79;100.00
81482;BME280;70894;52.346;5.314;2023-07-08T06:06:44;101790.75;;;19.95;100.00
81482;BME280;70894;52.346;5.314;2023-07-08T06:09:09;101795.91;;;20.14;100.00
81482;BME280;70894;52.346;5.314;2023-07-08T06:11:36;101788.38;;;20.00;98.71
81482;BME280;70894;52.346;5.314;2023-07-08T06:14:01;101791.94;;;20.11;100.00
81482;BME280;70894;52.346;5.314;2023-07-08T06:16:28;101797.09;;;20.20;100.00
81482;BME280;70894;52.346;5.314;2023-07-08T06:18:59;101801.47;;;20.31;100.00
81482;BME280;70894;52.346;5.314;2023-07-08T06:21:24;101804.28;;;20.28;97.96
81482;BME280;70894;52.346;5.314;2023-07-08T06:23:50;101794.13;;;20.51;99.43
81482;BME280;70894;52.346;5.314;2023-07-08T06:26:17;101788.53;;;20.47;96.47
81482;BME280;70894;52.346;5.314;2023-07-08T06:28:42;101792.88;;;20.62;97.01
81482;BME280;70894;52.346;5.314;2023-07-08T06:31:08;101789.16;;;20.76;96.75
81482;BME280;70894;52.346;5.314;2023-07-08T06:33:37;101789.53;;;20.88;97.33
81482;BME280;70894;52.346;5.314;2023-07-08T06:36:05;101787.38;;;21.06;97.56
81482;BME280;70894;52.346;5.314;2023-07-08T06:38:33;101792.56;;;21.08;95.81
81482;BME280;70894;52.346;5.314;2023-07-08T06:41:06;101789.31;;;21.16;94.82
81482;BME280;70894;52.346;5.314;2023-07-08T06:43:35;101793.16;;;21.33;94.85
81482;BME280;70894;52.346;5.314;2023-07-08T06:46:02;101802.25;;;21.47;91.81
81482;BME280;70894;52.346;5.314;2023-07-08T06:48:28;101801.84;;;21.49;92.91
81482;BME280;70894;52.346;5.314;2023-07-08T06:50:54;101800.25;;;21.48;94.81
81482;BME280;70894;52.346;5.314;2023-07-08T06:53:21;101801.69;;;21.70;95.72
81482;BME280;70894;52.346;5.314;2023-07-08T06:55:46;101796.75;;;21.80;92.01
81482;BME280;70894;52.346;5.314;2023-07-08T06:58:14;101797.91;;;21.83;89.36
81482;BME280;70894;52.346;5.314;2023-07-08T07:00:45;101791.44;;;22.19;87.85
81482;BME280;70894;52.346;5.314;2023-07-08T07:03:16;101798.41;;;22.41;86.88
81482;BME280;70894;52.346;5.314;2023-07-08T07:05:43;101809.50;;;22.55;87.32
81482;BME280;70894;52.346;5.314;2023-07-08T07:08:12;101805.94;;;22.51;89.16
81482;BME280;70894;52.346;5.314;2023-07-08T07:10:37;101800.06;;;22.69;88.04
81482;BME280;70894;52.346;5.314;2023-07-08T07:13:04;101802.88;;;22.95;86.90
81482;BME280;70894;52.346;5.314;2023-07-08T07:15:29;101794.59;;;23.11;84.25
81482;BME280;70894;52.346;5.314;2023-07-08T07:17:56;101792.28;;;23.29;83.58
81482;BME280;70894;52.346;5.314;2023-07-08T07:20:25;101799.31;;;23.40;82.76
81482;BME280;70894;52.346;5.314;2023-07-08T07:22:55;101790.81;;;23.44;83.36
81482;BME280;70894;52.346;5.314;2023-07-08T07:25:24;101804.16;;;23.86;82.81
81482;BME280;70894;52.346;5.314;2023-07-08T07:27:50;101794.91;;;23.85;78.42
81482;BME280;70894;52.346;5.314;2023-07-08T07:30:16;101796.56;;;24.22;79.70
81482;BME280;70894;52.346;5.314;2023-07-08T07:32:49;101795.22;;;24.49;80.00
81482;BME280;70894;52.346;5.314;2023-07-08T07:35:17;101791.47;;;24.71;78.07
81482;BME280;70894;52.346;5.314;2023-07-08T07:37:50;101794.66;;;24.73;74.44
81482;BME280;70894;52.346;5.314;2023-07-08T07:40:20;101802.28;;;25.08;73.16
81482;BME280;70894;52.346;5.314;2023-07-08T07:42:49;101800.53;;;25.14;77.43
81482;BME280;70894;52.346;5.314;2023-07-08T07:45:16;101794.03;;;24.98;73.00
81482;BME280;70894;52.346;5.314;2023-07-08T07:50:58;101790.72;;;25.35;71.54
81482;BME280;70894;52.346;5.314;2023-07-08T07:53:23;101793.13;;;25.20;69.64
81482;BME280;70894;52.346;5.314;2023-07-08T07:55:56;101784.53;;;25.40;69.82
81482;BME280;70894;52.346;5.314;2023-07-08T07:58:21;101782.22;;;25.51;65.03
81482;BME280;70894;52.346;5.314;2023-07-08T08:00:48;101784.63;;;25.96;64.76
81482;BME280;70894;52.346;5.314;2023-07-08T08:03:19;101780.16;;;26.11;64.40
81482;BME280;70894;52.346;5.314;2023-07-08T08:05:53;101781.19;;;26.17;63.33
81482;BME280;70894;52.346;5.314;2023-07-08T08:08:30;101782.94;;;26.40;61.64
81482;BME280;70894;52.346;5.314;2023-07-08T08:10:55;101780.72;;;26.19;60.15
81482;BME280;70894;52.346;5.314;2023-07-08T08:13:35;101774.88;;;25.97;62.30
81482;BME280;70894;52.346;5.314;2023-07-08T08:16:00;101773.03;;;26.19;62.68
81482;BME280;70894;52.346;5.314;2023-07-08T08:18:26;101772.38;;;26.40;60.12
81482;BME280;70894;52.346;5.314;2023-07-08T08:20:51;101784.00;;;26.46;59.43
81482;BME280;70894;52.346;5.314;2023-07-08T08:23:16;101777.88;;;26.72;58.82
81482;BME280;70894;52.346;5.314;2023-07-08T08:25:43;101771.75;;;26.61;59.23
81482;BME280;70894;52.346;5.314;2023-07-08T08:28:09;101768.72;;;26.81;57.80
81482;BME280;70894;52.346;5.314;2023-07-08T08:30:35;101768.59;;;26.84;58.80
81482;BME280;70894;52.346;5.314;2023-07-08T08:36:35;101773.66;;;27.39;58.54
81482;BME280;70894;52.346;5.314;2023-07-08T08:39:15;101771.94;;;27.41;58.40
81482;BME280;70894;52.346;5.314;2023-07-08T08:41:42;101780.16;;;27.27;55.39
81482;BME280;70894;52.346;5.314;2023-07-08T08:44:13;101782.22;;;27.73;55.32
81482;BME280;70894;52.346;5.314;2023-07-08T08:46:56;101790.41;;;27.92;54.75
81482;BME280;70894;52.346;5.314;2023-07-08T08:50:00;101781.44;;;27.94;49.41
81482;BME280;70894;52.346;5.314;2023-07-08T08:52:27;101785.81;;;27.86;50.88
81482;BME280;70894;52.346;5.314;2023-07-08T08:55:26;101786.47;;;28.11;50.75
81482;BME280;70894;52.346;5.314;2023-07-08T08:57:54;101788.59;;;28.41;49.05
81482;BME280;70894;52.346;5.314;2023-07-08T09:00:32;101787.41;;;28.51;49.87
81482;BME280;70894;52.346;5.314;2023-07-08T09:03:16;101786.03;;;28.64;48.54
81482;BME280;70894;52.346;5.314;2023-07-08T09:05:45;101789.84;;;28.70;48.42
81482;BME280;70894;52.346;5.314;2023-07-08T09:10:51;101785.25;;;28.64;47.75
81482;BME280;70894;52.346;5.314;2023-07-08T09:13:24;101788.63;;;28.80;49.31
81482;BME280;70894;52.346;5.314;2023-07-08T09:16:02;101791.59;;;28.98;46.49
81482;BME280;70894;52.346;5.314;2023-07-08T09:18:36;101791.59;;;28.68;47.99
81482;BME280;70894;52.346;5.314;2023-07-08T09:21:19;101791.03;;;28.82;47.25
81482;BME280;70894;52.346;5.314;2023-07-08T09:24:12;101791.44;;;29.02;46.94
81482;BME280;70894;52.346;5.314;2023-07-08T09:26:46;101791.28;;;29.45;46.65
81482;BME280;70894;52.346;5.314;2023-07-08T09:29:16;101793.81;;;29.52;44.76
81482;BME280;70894;52.346;5.314;2023-07-08T09:31:41;101798.22;;;28.95;47.75
81482;BME280;70894;52.346;5.314;2023-07-08T09:34:22;101785.06;;;29.28;46.12
81482;BME280;70894;52.346;5.314;2023-07-08T09:36:54;101783.63;;;29.33;42.67
81482;BME280;70894;52.346;5.314;2023-07-08T09:39:31;101795.09;;;29.51;46.66
81482;BME280;70894;52.346;5.314;2023-07-08T09:42:09;101784.19;;;29.76;45.16
81482;BME280;70894;52.346;5.314;2023-07-08T09:44:38;101791.31;;;29.72;43.49
81482;BME280;70894;52.346;5.314;2023-07-08T09:47:26;101788.75;;;29.56;43.56
81482;BME280;70894;52.346;5.314;2023-07-08T09:50:00;101796.41;;;28.80;43.21
81482;BME280;70894;52.346;5.314;2023-07-08T09:52:42;101795.22;;;28.99;46.23
81482;BME280;70894;52.346;5.314;2023-07-08T09:55:23;101794.66;;;30.15;45.84
81482;BME280;70894;52.346;5.314;2023-07-08T09:57:56;101794.72;;;31.15;39.77
81482;BME280;70894;52.346;5.314;2023-07-08T10:00:33;101798.66;;;31.18;42.74
81482;BME280;70894;52.346;5.314;2023-07-08T10:03:31;101791.66;;;31.19;41.45
81482;BME280;70894;52.346;5.314;2023-07-08T10:06:28;101793.31;;;31.58;39.62
81482;BME280;70894;52.346;5.314;2023-07-08T10:09:04;101789.56;;;31.75;38.70
81482;BME280;70894;52.346;5.314;2023-07-08T10:14:45;101791.06;;;32.38;39.18
81482;BME280;70894;52.346;5.314;2023-07-08T10:17:15;101795.44;;;32.62;37.19
81482;BME280;70894;52.346;5.314;2023-07-08T10:19:48;101796.50;;;32.93;38.73
81482;BME280;70894;52.346;5.314;2023-07-08T10:22:39;101789.53;;;33.14;36.65
81482;BME280;70894;52.346;5.314;2023-07-08T10:28:28;101788.31;;;32.14;35.78
81482;BME280;70894;52.346;5.314;2023-07-08T10:31:25;101796.13;;;32.86;35.84
81482;BME280;70894;52.346;5.314;2023-07-08T10:37:01;101795.63;;;32.44;34.55
81482;BME280;70894;52.346;5.314;2023-07-08T10:49:34;101779.94;;;34.37;33.81
81482;BME280;70894;52.346;5.314;2023-07-08T10:52:13;101774.00;;;34.46;33.73
81482;BME280;70894;52.346;5.314;2023-07-08T11:08:25;101775.91;;;34.80;32.28
81482;BME280;70894;52.346;5.314;2023-07-08T11:10:56;101776.16;;;35.13;31.09
81482;BME280;70894;52.346;5.314;2023-07-08T11:13:25;101774.88;;;34.83;34.11
81482;BME280;70894;52.346;5.314;2023-07-08T11:15:58;101774.88;;;33.81;32.36
81482;BME280;70894;52.346;5.314;2023-07-08T11:18:56;101769.72;;;33.85;31.25
81482;BME280;70894;52.346;5.314;2023-07-08T11:21:56;101770.78;;;35.31;33.78
81482;BME280;70894;52.346;5.314;2023-07-08T11:24:30;101763.53;;;35.41;29.83
81482;BME280;70894;52.346;5.314;2023-07-08T11:32:32;101755.69;;;34.63;31.00
81482;BME280;70894;52.346;5.314;2023-07-08T11:38:17;101753.47;;;35.62;31.71
81482;BME280;70894;52.346;5.314;2023-07-08T11:41:21;101753.13;;;36.40;27.74
81482;BME280;70894;52.346;5.314;2023-07-08T11:43:51;101743.94;;;35.39;28.01
81482;BME280;70894;52.346;5.314;2023-07-08T11:46:33;101755.06;;;35.68;29.18
81482;BME280;70894;52.346;5.314;2023-07-08T11:49:13;101752.38;;;36.40;29.18
81482;BME280;70894;52.346;5.314;2023-07-08T11:51:43;101753.97;;;36.68;27.46
81482;BME280;70894;52.346;5.314;2023-07-08T11:54:31;101754.22;;;36.70;27.17
81482;BME280;70894;52.346;5.314;2023-07-08T11:57:05;101743.88;;;37.46;26.52
81482;BME280;70894;52.346;5.314;2023-07-08T11:59:40;101744.25;;;36.38;26.11
81482;BME280;70894;52.346;5.314;2023-07-08T12:02:15;101751.03;;;36.24;25.67
81482;BME280;70894;52.346;5.314;2023-07-08T12:05:28;101735.75;;;35.85;26.60
81482;BME280;70894;52.346;5.314;2023-07-08T12:07:55;101734.97;;;35.26;29.91
81482;BME280;70894;52.346;5.314;2023-07-08T12:10:32;101739.63;;;35.66;27.99
81482;BME280;70894;52.346;5.314;2023-07-08T12:13:11;101730.91;;;36.46;26.30
81482;BME280;70894;52.346;5.314;2023-07-08T12:15:38;101744.22;;;36.27;26.71
81482;BME280;70894;52.346;5.314;2023-07-08T12:18:27;101741.53;;;35.91;28.73
81482;BME280;70894;52.346;5.314;2023-07-08T12:20:56;101733.41;;;35.84;29.26
81482;BME280;70894;52.346;5.314;2023-07-08T12:23:32;101730.41;;;36.64;27.51
81482;BME280;70894;52.346;5.314;2023-07-08T12:26:07;101730.38;;;36.86;27.43
81482;BME280;70894;52.346;5.314;2023-07-08T12:28:46;101727.66;;;37.26;26.51
81482;BME280;70894;52.346;5.314;2023-07-08T12:31:17;101733.78;;;36.90;27.14
81482;BME280;70894;52.346;5.314;2023-07-08T12:33:54;101726.19;;;36.43;25.90
81482;BME280;70894;52.346;5.314;2023-07-08T12:36:30;101725.16;;;36.68;25.71
81482;BME280;70894;52.346;5.314;2023-07-08T12:39:15;101725.94;;;36.63;27.35
81482;BME280;70894;52.346;5.314;2023-07-08T12:41:44;101722.25;;;37.01;25.39
81482;BME280;70894;52.346;5.314;2023-07-08T12:44:36;101721.94;;;37.15;24.71
81482;BME280;70894;52.346;5.314;2023-07-08T12:47:07;101717.53;;;37.09;26.49
81482;BME280;70894;52.346;5.314;2023-07-08T12:49:33;101709.16;;;36.89;25.72
81482;BME280;70894;52.346;5.314;2023-07-08T12:52:05;101713.91;;;36.70;25.85
81482;BME280;70894;52.346;5.314;2023-07-08T12:54:49;101708.25;;;37.32;25.07
81482;BME280;70894;52.346;5.314;2023-07-08T13:00:37;101715.97;;;36.42;25.71
81482;BME280;70894;52.346;5.314;2023-07-08T13:03:15;101704.72;;;36.77;27.20
81482;BME280;70894;52.346;5.314;2023-07-08T13:05:42;101716.72;;;36.04;23.49
81482;BME280;70894;52.346;5.314;2023-07-08T13:11:01;101707.34;;;36.75;24.43
81482;BME280;70894;52.346;5.314;2023-07-08T13:13:31;101714.13;;;36.88;24.42
81482;BME280;70894;52.346;5.314;2023-07-08T13:15:59;101714.38;;;36.90;24.80
81482;BME280;70894;52.346;5.314;2023-07-08T13:18:34;101712.28;;;36.96;24.39
81482;BME280;70894;52.346;5.314;2023-07-08T13:21:13;101707.19;;;38.62;24.21
81482;BME280;70894;52.346;5.314;2023-07-08T13:23:43;101714.72;;;39.00;23.90
81482;BME280;70894;52.346;5.314;2023-07-08T13:26:29;101705.72;;;37.75;21.63
81482;BME280;70894;52.346;5.314;2023-07-08T13:29:09;101713.25;;;37.94;24.00
81482;BME280;70894;52.346;5.314;2023-07-08T13:31:56;101707.31;;;36.80;23.86
81482;BME280;70894;52.346;5.314;2023-07-08T13:34:25;101709.69;;;37.66;22.38
81482;BME280;70894;52.346;5.314;2023-07-08T13:36:57;101704.44;;;36.80;21.46
81482;BME280;70894;52.346;5.314;2023-07-08T13:39:31;101711.28;;;37.62;21.84
81482;BME280;70894;52.346;5.314;2023-07-08T13:41:58;101703.94;;;37.61;22.53
81482;BME280;70894;52.346;5.314;2023-07-08T13:44:24;101704.38;;;37.19;22.50
81482;BME280;70894;52.346;5.314;2023-07-08T13:47:03;101702.88;;;37.64;22.16
81482;BME280;70894;52.346;5.314;2023-07-08T13:49:39;101711.94;;;37.90;22.54
81482;BME280;70894;52.346;5.314;2023-07-08T13:52:15;101701.34;;;37.57;21.57
81482;BME280;70894;52.346;5.314;2023-07-08T13:55:05;101708.50;;;37.97;21.61
81482;BME280;70894;52.346;5.314;2023-07-08T13:57:39;101697.53;;;38.24;22.82
81482;BME280;70894;52.346;5.314;2023-07-08T14:00:07;101697.19;;;37.98;21.88
81482;BME280;70894;52.346;5.314;2023-07-08T14:02:34;101697.94;;;37.59;22.72
81482;BME280;70894;52.346;5.314;2023-07-08T14:05:00;101700.41;;;37.27;23.50
81482;BME280;70894;52.346;5.314;2023-07-08T14:07:32;101689.97;;;37.19;23.58
81482;BME280;70894;52.346;5.314;2023-07-08T14:10:00;101704.72;;;36.39;26.00
81482;BME280;70894;52.346;5.314;2023-07-08T14:12:26;101697.84;;;35.18;25.00
81482;BME280;70894;52.346;5.314;2023-07-08T14:14:51;101702.31;;;35.99;26.89
81482;BME280;70894;52.346;5.314;2023-07-08T14:17:26;101701.50;;;35.87;27.68
81482;BME280;70894;52.346;5.314;2023-07-08T14:19:59;101698.88;;;35.84;26.91
81482;BME280;70894;52.346;5.314;2023-07-08T14:22:38;101696.16;;;35.06;28.59
81482;BME280;70894;52.346;5.314;2023-07-08T14:25:18;101690.84;;;34.93;27.15
81482;BME280;70894;52.346;5.314;2023-07-08T14:27:47;101692.59;;;34.74;27.25